Time;durP1;ratioP1;P1;durP2;ratioP2;P2;SDS_P1;SDS_P2;PMS_P1;PMS_P2;Temp;Humidity;BMP_temperature;BMP_pressure;BME280_temperature;BME280_humidity;BME280_pressure;Samples;Min_cycle;Max_cycle;Signal;HPM_P1;HPM_P2
2022/09/28 00:01:08;;;;;;;5.50;3.42;;;;;;;;;;4970794;28;20046;-58
2022/09/28 00:03:34;;;;;;;7.43;3.08;;;;;;;;;;4987963;28;20559;-57
2022/09/28 00:06:02;;;;;;;7.35;3.50;;;;;;;;;;4984107;28;20065;-57
2022/09/28 00:08:29;;;;;;;7.20;3.75;;;;;;;;;;4988156;28;20504;-57
2022/09/28 00:10:55;;;;;;;6.10;3.53;;;;;;;;;;4987590;28;20046;-57
2022/09/28 00:13:22;;;;;;;5.35;3.17;;;;;;;;;;4988304;28;20153;-58
2022/09/28 00:15:58;;;;;;;5.80;3.60;;;;;;;;;;4987850;28;20046;-57
2022/09/28 00:18:24;;;;;;;5.63;3.55;;;;;;;;;;4987971;28;20134;-57
2022/09/28 00:20:59;;;;;;;5.75;3.80;;;;;;;;;;4986883;28;20049;-57
2022/09/28 00:23:25;;;;;;;7.70;3.63;;;;;;;;;;4988115;28;20050;-57
2022/09/28 00:25:51;;;;;;;6.65;3.50;;;;;;;;;;4987731;28;20042;-56
2022/09/28 00:28:17;;;;;;;7.60;3.03;;;;;;;;;;4987829;28;20061;-57
2022/09/28 00:30:43;;;;;;;7.18;4.30;;;;;;;;;;4987397;28;20069;-57
2022/09/28 00:33:10;;;;;;;8.68;4.65;;;;;;;;;;4986960;28;20064;-57
2022/09/28 00:35:36;;;;;;;6.28;4.03;;;;;;;;;;4986637;28;20129;-57
2022/09/28 00:38:02;;;;;;;8.35;4.40;;;;;;;;;;4987671;28;20035;-59
2022/09/28 00:40:29;;;;;;;7.75;4.30;;;;;;;;;;4987958;28;20073;-57
2022/09/28 00:42:55;;;;;;;10.95;4.25;;;;;;;;;;4987039;28;20061;-57
2022/09/28 00:45:23;;;;;;;6.22;4.32;;;;;;;;;;4987718;28;20050;-57
2022/09/28 00:47:53;;;;;;;11.43;4.68;;;;;;;;;;4985152;28;20038;-57
2022/09/28 00:50:31;;;;;;;8.90;4.28;;;;;;;;;;4986356;28;20543;-56
2022/09/28 00:53:03;;;;;;;8.75;4.47;;;;;;;;;;4987406;28;20045;-57
2022/09/28 00:55:34;;;;;;;10.40;4.47;;;;;;;;;;4987474;28;20526;-57
2022/09/28 00:58:01;;;;;;;8.55;4.32;;;;;;;;;;4987306;28;20125;-57
2022/09/28 01:00:27;;;;;;;9.25;4.75;;;;;;;;;;4984124;28;20038;-57
2022/09/28 01:02:54;;;;;;;7.35;4.13;;;;;;;;;;4986430;28;20047;-57
2022/09/28 01:05:20;;;;;;;8.30;3.90;;;;;;;;;;4986532;28;20125;-57
2022/09/28 01:07:46;;;;;;;8.25;3.70;;;;;;;;;;4986069;28;20321;-57
2022/09/28 01:10:13;;;;;;;9.57;5.05;;;;;;;;;;4987161;28;20066;-57
2022/09/28 01:12:39;;;;;;;5.40;3.78;;;;;;;;;;4986273;28;20492;-57
2022/09/28 01:15:06;;;;;;;7.15;3.72;;;;;;;;;;4986970;28;20038;-57
2022/09/28 01:17:44;;;;;;;10.45;4.50;;;;;;;;;;4986509;28;20133;-58
2022/09/28 01:20:30;;;;;;;8.15;3.95;;;;;;;;;;4986555;28;20042;-57
2022/09/28 01:23:12;;;;;;;9.23;3.92;;;;;;;;;;4986350;28;20048;-57
2022/09/28 01:25:54;;;;;;;8.32;4.45;;;;;;;;;;4986327;28;20129;-57
2022/09/28 01:28:23;;;;;;;8.40;4.57;;;;;;;;;;4983389;28;20392;-57
2022/09/28 01:30:58;;;;;;;7.93;4.70;;;;;;;;;;4986767;28;20473;-57
2022/09/28 01:33:27;;;;;;;10.32;4.43;;;;;;;;;;4986839;28;20520;-57
2022/09/28 01:35:57;;;;;;;9.13;4.60;;;;;;;;;;4985591;28;20038;-57
2022/09/28 01:38:28;;;;;;;14.30;5.03;;;;;;;;;;4986883;28;20043;-57
2022/09/28 01:40:55;;;;;;;11.05;5.05;;;;;;;;;;4986653;28;20522;-56
2022/09/28 01:43:23;;;;;;;11.07;5.45;;;;;;;;;;4986227;28;20093;-57
2022/09/28 01:45:52;;;;;;;7.18;4.47;;;;;;;;;;4986267;28;20038;-57
2022/09/28 01:48:28;;;;;;;13.15;5.18;;;;;;;;;;4986814;28;20042;-56
2022/09/28 01:50:57;;;;;;;8.70;4.55;;;;;;;;;;4982490;28;20519;-57
2022/09/28 01:53:28;;;;;;;9.40;4.35;;;;;;;;;;4987064;28;20050;-57
2022/09/28 01:55:57;;;;;;;8.55;4.63;;;;;;;;;;4969053;28;20056;-57
2022/09/28 01:58:30;;;;;;;10.20;4.82;;;;;;;;;;4986795;28;20047;-57
2022/09/28 02:00:59;;;;;;;11.18;4.93;;;;;;;;;;4986661;28;20512;-57
2022/09/28 02:03:31;;;;;;;11.18;4.90;;;;;;;;;;4986647;28;20046;-57
2022/09/28 02:06:00;;;;;;;9.52;5.13;;;;;;;;;;4968500;28;20485;-57
2022/09/28 02:08:32;;;;;;;9.48;4.93;;;;;;;;;;4988792;28;20078;-57
2022/09/28 02:10:59;;;;;;;8.55;4.97;;;;;;;;;;5107078;22;20057;-58
2022/09/28 02:13:30;;;;;;;8.23;5.20;;;;;;;;;;5019270;28;20045;-57
2022/09/28 02:16:01;;;;;;;7.57;5.00;;;;;;;;;;5038064;28;20065;-58
2022/09/28 02:18:27;;;;;;;14.88;6.32;;;;;;;;;;5030972;28;20041;-57
2022/09/28 02:21:05;;;;;;;11.43;5.75;;;;;;;;;;5036641;28;20441;-57
2022/09/28 02:23:32;;;;;;;10.52;6.20;;;;;;;;;;5040592;28;20073;-57
2022/09/28 02:26:01;;;;;;;8.43;4.95;;;;;;;;;;5030889;28;20037;-57
2022/09/28 02:28:27;;;;;;;10.18;5.93;;;;;;;;;;5031410;28;20099;-58
2022/09/28 02:30:54;;;;;;;15.15;7.50;;;;;;;;;;5038174;28;20048;-56
2022/09/28 02:33:25;;;;;;;20.33;9.02;;;;;;;;;;5026360;28;20046;-57
2022/09/28 02:35:51;;;;;;;17.00;9.80;;;;;;;;;;5029078;28;20249;-57
2022/09/28 02:38:18;;;;;;;20.60;9.43;;;;;;;;;;5030348;28;20124;-57
2022/09/28 02:40:47;;;;;;;17.55;9.75;;;;;;;;;;5027735;28;20041;-57
2022/09/28 02:43:26;;;;;;;17.25;10.60;;;;;;;;;;5029794;28;20043;-58
2022/09/28 02:45:53;;;;;;;20.83;9.32;;;;;;;;;;5029653;28;20053;-56
2022/09/28 02:48:32;;;;;;;19.27;9.52;;;;;;;;;;5029848;28;20045;-57
2022/09/28 02:51:01;;;;;;;16.13;8.60;;;;;;;;;;5029944;28;20045;-57
2022/09/28 02:53:41;;;;;;;19.17;9.90;;;;;;;;;;5031271;28;20498;-57
2022/09/28 02:56:20;;;;;;;16.38;8.20;;;;;;;;;;5029891;28;20056;-57
2022/09/28 02:58:53;;;;;;;16.75;8.88;;;;;;;;;;5029786;28;20136;-57
2022/09/28 03:01:31;;;;;;;17.95;8.88;;;;;;;;;;5027637;28;20542;-57
2022/09/28 03:04:04;;;;;;;14.15;8.02;;;;;;;;;;5028694;28;20052;-57
2022/09/28 03:06:33;;;;;;;17.13;8.48;;;;;;;;;;5031225;28;20155;-57
2022/09/28 03:09:20;;;;;;;17.05;8.63;;;;;;;;;;5029540;28;20041;-57
2022/09/28 03:11:49;;;;;;;22.63;9.35;;;;;;;;;;5026436;28;20506;-57
2022/09/28 03:14:16;;;;;;;22.30;10.32;;;;;;;;;;5029070;28;20037;-57
2022/09/28 03:16:43;;;;;;;18.10;8.75;;;;;;;;;;5029722;28;20085;-57
2022/09/28 03:19:11;;;;;;;25.35;10.82;;;;;;;;;;5029768;28;20037;-57
2022/09/28 03:21:37;;;;;;;20.70;9.48;;;;;;;;;;5031781;28;20049;-57
2022/09/28 03:24:04;;;;;;;25.70;10.10;;;;;;;;;;5011363;28;20046;-57
2022/09/28 03:26:31;;;;;;;21.25;9.43;;;;;;;;;;5029567;28;20049;-57
2022/09/28 03:28:57;;;;;;;20.67;9.85;;;;;;;;;;5029682;28;20126;-57
2022/09/28 03:31:23;;;;;;;18.30;9.23;;;;;;;;;;5041778;28;20083;-57
2022/09/28 03:33:51;;;;;;;40.28;12.27;;;;;;;;;;5028353;28;20045;-57
2022/09/28 03:36:17;;;;;;;53.90;12.82;;;;;;;;;;5032576;28;20126;-57
2022/09/28 03:38:43;;;;;;;24.40;9.77;;;;;;;;;;5029075;28;20709;-57
2022/09/28 03:41:09;;;;;;;30.25;12.43;;;;;;;;;;5009471;28;20046;-57
2022/09/28 03:43:35;;;;;;;60.25;10.50;;;;;;;;;;5032213;28;20037;-57
2022/09/28 03:46:01;;;;;;;42.10;10.88;;;;;;;;;;5038417;28;20053;-59
2022/09/28 03:48:29;;;;;;;29.77;9.98;;;;;;;;;;5028440;28;20509;-57
2022/09/28 03:50:56;;;;;;;27.42;10.02;;;;;;;;;;5028584;28;20471;-57
2022/09/28 03:53:22;;;;;;;27.40;9.80;;;;;;;;;;5028944;28;20107;-57
2022/09/28 03:55:49;;;;;;;37.58;10.10;;;;;;;;;;5027833;28;20077;-58
2022/09/28 03:58:16;;;;;;;33.53;11.70;;;;;;;;;;5024554;28;20041;-57
2022/09/28 04:00:42;;;;;;;28.27;10.05;;;;;;;;;;5010232;28;20045;-57
2022/09/28 04:03:08;;;;;;;38.72;9.77;;;;;;;;;;5028517;28;20038;-57
2022/09/28 04:05:34;;;;;;;44.20;9.98;;;;;;;;;;5040709;28;20112;-58
2022/09/28 04:08:01;;;;;;;36.70;9.93;;;;;;;;;;5029227;28;20038;-57
2022/09/28 04:10:27;;;;;;;37.65;9.82;;;;;;;;;;5028245;28;20065;-56
2022/09/28 04:12:55;;;;;;;37.97;10.32;;;;;;;;;;5040004;28;20538;-56
2022/09/28 04:15:21;;;;;;;30.60;8.13;;;;;;;;;;5033331;28;20046;-57
2022/09/28 04:17:47;;;;;;;24.13;9.18;;;;;;;;;;5014174;28;20045;-57
2022/09/28 04:20:13;;;;;;;28.85;9.07;;;;;;;;;;5028761;28;20128;-57
2022/09/28 04:22:39;;;;;;;25.83;7.90;;;;;;;;;;5032012;28;20453;-57
2022/09/28 04:25:06;;;;;;;42.63;9.75;;;;;;;;;;5027811;28;20532;-57
2022/09/28 04:30:17;;;;;;;78.65;9.60;;;;;;;;;;5027481;28;20045;-57
2022/09/28 04:32:46;;;;;;;24.42;8.43;;;;;;;;;;5028596;28;20091;-57
2022/09/28 04:35:12;;;;;;;33.92;8.35;;;;;;;;;;5027438;28;20072;-56
2022/09/28 04:37:39;;;;;;;46.33;10.05;;;;;;;;;;5027436;28;20038;-57
2022/09/28 04:40:05;;;;;;;44.22;9.52;;;;;;;;;;5027750;28;20111;-57
2022/09/28 04:42:31;;;;;;;83.20;10.15;;;;;;;;;;5027818;28;20446;-59
2022/09/28 04:44:59;;;;;;;39.63;8.45;;;;;;;;;;5028097;28;20060;-57
2022/09/28 04:47:26;;;;;;;27.58;8.18;;;;;;;;;;5028707;28;20064;-57
2022/09/28 04:49:52;;;;;;;30.20;9.25;;;;;;;;;;5026326;28;20037;-57
2022/09/28 04:52:18;;;;;;;37.55;8.20;;;;;;;;;;5020238;28;20095;-57
2022/09/28 04:54:44;;;;;;;55.22;9.07;;;;;;;;;;5027278;28;20403;-57
2022/09/28 04:57:10;;;;;;;52.08;8.25;;;;;;;;;;5027155;28;20041;-57
2022/09/28 04:59:37;;;;;;;60.42;8.77;;;;;;;;;;5028171;28;20041;-57
2022/09/28 05:02:03;;;;;;;54.15;9.15;;;;;;;;;;5031038;28;20045;-57
2022/09/28 05:04:30;;;;;;;56.58;8.70;;;;;;;;;;5026884;28;20048;-57
2022/09/28 05:06:56;;;;;;;48.55;8.50;;;;;;;;;;5009650;28;20624;-57
2022/09/28 05:09:23;;;;;;;70.00;9.48;;;;;;;;;;5027083;28;20037;-57
2022/09/28 05:11:49;;;;;;;58.50;8.65;;;;;;;;;;5028141;28;20084;-57
2022/09/28 05:14:16;;;;;;;39.92;8.10;;;;;;;;;;5026812;28;20116;-57
2022/09/28 05:16:42;;;;;;;42.92;9.10;;;;;;;;;;5026957;28;20494;-57
2022/09/28 05:19:09;;;;;;;49.85;7.82;;;;;;;;;;5026268;28;20487;-57
2022/09/28 05:21:35;;;;;;;58.95;8.68;;;;;;;;;;5038485;28;20047;-57
2022/09/28 05:24:06;;;;;;;66.57;8.93;;;;;;;;;;5044721;28;20049;-59
2022/09/28 05:26:32;;;;;;;46.97;6.95;;;;;;;;;;5029582;28;20418;-58
2022/09/28 05:28:59;;;;;;;74.68;8.75;;;;;;;;;;5030192;28;20392;-57
2022/09/28 05:31:26;;;;;;;60.50;7.53;;;;;;;;;;5030747;28;20132;-57
2022/09/28 05:33:52;;;;;;;28.45;7.38;;;;;;;;;;5025879;28;20138;-57
2022/09/28 05:36:18;;;;;;;54.20;7.75;;;;;;;;;;5024149;28;20033;-56
2022/09/28 05:38:45;;;;;;;42.95;7.63;;;;;;;;;;5035902;28;20048;-57
2022/09/28 05:41:11;;;;;;;29.63;7.78;;;;;;;;;;5026863;28;20049;-57
2022/09/28 05:43:38;;;;;;;52.70;8.98;;;;;;;;;;5029588;28;20041;-57
2022/09/28 05:46:05;;;;;;;40.58;7.72;;;;;;;;;;5029326;28;20068;-57
2022/09/28 05:48:31;;;;;;;43.70;9.40;;;;;;;;;;5040539;28;20041;-57
2022/09/28 05:50:58;;;;;;;41.53;8.60;;;;;;;;;;5031246;28;20089;-55
2022/09/28 05:53:24;;;;;;;35.65;8.50;;;;;;;;;;5035672;28;20116;-57
2022/09/28 05:55:51;;;;;;;43.40;8.57;;;;;;;;;;5029004;28;20416;-56
2022/09/28 05:58:17;;;;;;;22.90;7.40;;;;;;;;;;5020091;28;20061;-57
2022/09/28 06:00:43;;;;;;;32.83;8.65;;;;;;;;;;5012317;28;20040;-57
2022/09/28 06:03:11;;;;;;;27.65;8.52;;;;;;;;;;5013666;28;20107;-59
2022/09/28 06:05:38;;;;;;;;;;;;;;;;;;5013132;28;20068;-59
2022/09/28 06:08:05;;;;;;;25.05;8.55;;;;;;;;;;5013978;28;19922;-58
2022/09/28 06:10:32;;;;;;;18.25;7.35;;;;;;;;;;5012784;28;20092;-60
2022/09/28 06:12:58;;;;;;;27.80;8.07;;;;;;;;;;5017339;28;20510;-58
2022/09/28 06:15:25;;;;;;;22.73;8.63;;;;;;;;;;5013177;28;20057;-58
2022/09/28 06:17:56;;;;;;;21.90;8.07;;;;;;;;;;5013848;28;20181;-59
2022/09/28 06:20:22;;;;;;;29.13;8.50;;;;;;;;;;5014953;28;20045;-58
2022/09/28 06:22:52;;;;;;;21.30;9.25;;;;;;;;;;5016162;28;20092;-59
2022/09/28 06:25:18;;;;;;;19.58;7.97;;;;;;;;;;5010902;28;20057;-59
2022/09/28 06:27:53;;;;;;;22.45;7.88;;;;;;;;;;5013836;28;20046;-58
2022/09/28 06:30:19;;;;;;;24.98;8.57;;;;;;;;;;5011768;28;20081;-58
2022/09/28 06:32:45;;;;;;;21.90;8.00;;;;;;;;;;5015572;28;20073;-59
2022/09/28 06:35:14;;;;;;;39.63;9.18;;;;;;;;;;5017827;28;20437;-58
2022/09/28 06:37:43;;;;;;;21.58;7.68;;;;;;;;;;5029122;28;20533;-58
2022/09/28 06:40:10;;;;;;;20.63;8.13;;;;;;;;;;5018553;28;20549;-58
2022/09/28 06:42:36;;;;;;;22.85;8.23;;;;;;;;;;5028431;28;20045;-58
2022/09/28 06:45:03;;;;;;;28.45;9.15;;;;;;;;;;5033863;28;20079;-58
2022/09/28 06:47:32;;;;;;;32.95;10.23;;;;;;;;;;5019258;28;20061;-59
2022/09/28 06:49:58;;;;;;;21.52;9.07;;;;;;;;;;5028343;28;20033;-58
2022/09/28 06:52:24;;;;;;;14.88;8.70;;;;;;;;;;5019827;28;20057;-58
2022/09/28 06:54:51;;;;;;;17.33;8.68;;;;;;;;;;5013615;28;20038;-58
2022/09/28 06:57:18;;;;;;;27.23;9.07;;;;;;;;;;5016205;28;20051;-58
2022/09/28 06:59:44;;;;;;;18.85;7.90;;;;;;;;;;5013378;28;20116;-59
2022/09/28 07:02:14;;;;;;;29.30;8.68;;;;;;;;;;5016477;28;20057;-59
2022/09/28 07:04:41;;;;;;;20.08;7.97;;;;;;;;;;5019447;28;20041;-59
2022/09/28 07:07:09;;;;;;;25.38;9.05;;;;;;;;;;5009997;28;20046;-58
2022/09/28 07:09:36;;;;;;;17.05;8.48;;;;;;;;;;5009424;28;20056;-59
2022/09/28 07:12:03;;;;;;;17.77;8.57;;;;;;;;;;5004258;28;20141;-59
2022/09/28 07:14:32;;;;;;;17.10;7.88;;;;;;;;;;5009851;28;20053;-59
2022/09/28 07:16:58;;;;;;;19.95;8.98;;;;;;;;;;5010462;28;20400;-58
2022/09/28 07:19:25;;;;;;;21.33;8.15;;;;;;;;;;5023658;28;20072;-59
2022/09/28 07:21:51;;;;;;;21.52;8.27;;;;;;;;;;5026066;28;20057;-59
2022/09/28 07:24:18;;;;;;;21.27;8.35;;;;;;;;;;5026631;28;20213;-58
2022/09/28 07:26:44;;;;;;;22.27;8.93;;;;;;;;;;5026075;28;20490;-59
2022/09/28 07:29:11;;;;;;;19.77;8.75;;;;;;;;;;5026398;28;20034;-58
2022/09/28 07:31:38;;;;;;;15.32;8.32;;;;;;;;;;5026013;28;20554;-58
2022/09/28 07:34:04;;;;;;;14.95;8.02;;;;;;;;;;5025118;28;20037;-58
2022/09/28 07:36:33;;;;;;;16.88;8.48;;;;;;;;;;5023420;28;20099;-59
2022/09/28 07:39:00;;;;;;;17.13;8.50;;;;;;;;;;5025774;28;20769;-59
2022/09/28 07:41:31;;;;;;;14.75;7.15;;;;;;;;;;5027330;28;20045;-59
2022/09/28 07:44:04;;;;;;;15.88;7.95;;;;;;;;;;5026411;28;20065;-58
2022/09/28 07:46:30;;;;;;;16.42;8.48;;;;;;;;;;5028787;28;20085;-58
2022/09/28 07:48:57;;;;;;;20.83;8.88;;;;;;;;;;5031086;28;20041;-58
2022/09/28 07:51:23;;;;;;;15.95;8.30;;;;;;;;;;5028099;28;20045;-58
2022/09/28 07:53:49;;;;;;;18.20;7.60;;;;;;;;;;5030560;28;20037;-58
2022/09/28 07:56:18;;;;;;;16.35;8.32;;;;;;;;;;5030506;28;20167;-58
2022/09/28 07:58:46;;;;;;;17.40;8.20;;;;;;;;;;5031525;28;20049;-58
2022/09/28 08:01:16;;;;;;;18.35;9.07;;;;;;;;;;5031517;28;20125;-58
2022/09/28 08:03:44;;;;;;;15.10;7.60;;;;;;;;;;5030974;28;20061;-58
2022/09/28 08:06:11;;;;;;;15.32;8.25;;;;;;;;;;5031239;28;20080;-58
2022/09/28 08:08:43;;;;;;;16.65;8.00;;;;;;;;;;5027625;28;20056;-59
2022/09/28 08:11:12;;;;;;;14.77;7.82;;;;;;;;;;5033142;28;20759;-58
2022/09/28 08:13:38;;;;;;;22.63;8.63;;;;;;;;;;5028426;28;20119;-58
2022/09/28 08:16:07;;;;;;;19.30;8.65;;;;;;;;;;5031668;28;20034;-59
2022/09/28 08:18:33;;;;;;;15.02;7.75;;;;;;;;;;5028280;28;20045;-60
2022/09/28 08:23:45;;;;;;;17.45;8.40;;;;;;;;;;5027318;28;20107;-58
2022/09/28 08:26:11;;;;;;;17.08;8.85;;;;;;;;;;5027227;28;20037;-59
2022/09/28 08:28:38;;;;;;;16.77;8.25;;;;;;;;;;5027005;28;20044;-57
2022/09/28 08:31:06;;;;;;;16.73;8.57;;;;;;;;;;5027680;28;20128;-58
2022/09/28 08:33:32;;;;;;;16.05;8.82;;;;;;;;;;5026542;28;20049;-58
2022/09/28 08:36:00;;;;;;;15.13;7.70;;;;;;;;;;5027282;28;20518;-59
2022/09/28 08:38:27;;;;;;;16.48;7.10;;;;;;;;;;5023820;28;20171;-59
2022/09/28 08:40:54;;;;;;;17.45;7.85;;;;;;;;;;5026113;28;20041;-58
2022/09/28 08:43:26;;;;;;;14.30;7.68;;;;;;;;;;5026964;28;20104;-58
2022/09/28 08:45:53;;;;;;;15.63;7.85;;;;;;;;;;5016824;28;20055;-59
2022/09/28 08:48:52;;;;;;;16.33;7.80;;;;;;;;;;5007288;28;20115;-59
2022/09/28 08:51:16;;;;;;;13.80;7.95;;;;;;;;;;5015565;28;20103;-59
2022/09/28 08:53:51;;;;;;;21.33;8.18;;;;;;;;;;5025952;28;20042;-58
2022/09/28 08:56:24;;;;;;;14.68;7.13;;;;;;;;;;5018198;28;20057;-58
2022/09/28 08:58:54;;;;;;;15.88;7.35;;;;;;;;;;5029227;28;20050;-58
2022/09/28 09:01:21;;;;;;;14.70;7.13;;;;;;;;;;5027508;28;20041;-59
2022/09/28 09:03:48;;;;;;;11.52;5.30;;;;;;;;;;5028937;28;20034;-59
2022/09/28 09:06:26;;;;;;;18.30;6.72;;;;;;;;;;5028672;28;20128;-58
2022/09/28 09:09:09;;;;;;;12.80;6.32;;;;;;;;;;5030102;28;20049;-58
2022/09/28 09:11:37;;;;;;;10.98;5.28;;;;;;;;;;5027500;28;20085;-58
2022/09/28 09:14:11;;;;;;;12.05;5.00;;;;;;;;;;5030225;28;20100;-59
2022/09/28 09:16:48;;;;;;;11.95;5.10;;;;;;;;;;5029405;28;20531;-57
2022/09/28 09:19:16;;;;;;;9.70;4.55;;;;;;;;;;5027323;28;20058;-58
2022/09/28 09:21:42;;;;;;;11.80;5.03;;;;;;;;;;5026180;28;20037;-59
2022/09/28 09:24:23;;;;;;;9.80;5.20;;;;;;;;;;5026062;28;20041;-60
2022/09/28 09:26:52;;;;;;;13.85;5.60;;;;;;;;;;5026284;28;20045;-59
2022/09/28 09:29:19;;;;;;;10.50;4.85;;;;;;;;;;5023387;28;20041;-59
2022/09/28 09:31:46;;;;;;;11.82;5.57;;;;;;;;;;5026317;28;20045;-59
2022/09/28 09:34:34;;;;;;;9.18;4.80;;;;;;;;;;5026099;28;20052;-59
2022/09/28 09:37:00;;;;;;;10.50;5.93;;;;;;;;;;5025376;28;20041;-59
2022/09/28 09:39:27;;;;;;;10.80;4.63;;;;;;;;;;5024101;28;20045;-60
2022/09/28 09:41:53;;;;;;;19.42;5.20;;;;;;;;;;5021584;28;20136;-60
2022/09/28 09:44:39;;;;;;;11.10;4.18;;;;;;;;;;5006961;28;20499;-61
2022/09/28 09:47:07;;;;;;;11.45;4.85;;;;;;;;;;5023342;28;20048;-60
2022/09/28 09:49:45;;;;;;;12.57;4.95;;;;;;;;;;5023560;28;20049;-62
2022/09/28 09:52:21;;;;;;;10.77;4.00;;;;;;;;;;5024117;28;20128;-61
2022/09/28 09:54:54;;;;;;;7.30;3.47;;;;;;;;;;5021768;28;20041;-61
2022/09/28 09:57:24;;;;;;;11.20;3.60;;;;;;;;;;5023282;28;20820;-61
2022/09/28 09:59:51;;;;;;;8.23;4.03;;;;;;;;;;5023692;28;20080;-58
2022/09/28 10:02:20;;;;;;;4.63;2.28;;;;;;;;;;5023362;28;20069;-60
2022/09/28 10:04:47;;;;;;;7.45;1.98;;;;;;;;;;5023035;28;20110;-60
2022/09/28 10:07:21;;;;;;;6.38;2.00;;;;;;;;;;5023701;28;20038;-59
2022/09/28 10:09:48;;;;;;;6.35;2.60;;;;;;;;;;5022281;28;20057;-60
2022/09/28 10:12:17;;;;;;;5.82;2.72;;;;;;;;;;5022938;28;20049;-61
2022/09/28 10:14:45;;;;;;;7.18;3.38;;;;;;;;;;5019762;28;20076;-60
2022/09/28 10:17:13;;;;;;;7.25;3.65;;;;;;;;;;5024065;28;20045;-59
2022/09/28 10:19:39;;;;;;;9.35;3.72;;;;;;;;;;5024316;28;20040;-60
2022/09/28 10:22:06;;;;;;;6.20;3.33;;;;;;;;;;5021803;28;20041;-60
2022/09/28 10:24:40;;;;;;;5.78;2.55;;;;;;;;;;5020158;28;20057;-61
2022/09/28 10:27:08;;;;;;;5.15;2.85;;;;;;;;;;5022864;28;20372;-60
2022/09/28 10:29:39;;;;;;;12.18;3.08;;;;;;;;;;5003248;28;20034;-61
2022/09/28 10:32:18;;;;;;;9.30;2.40;;;;;;;;;;5023982;28;20050;-60
2022/09/28 10:34:44;;;;;;;4.72;2.17;;;;;;;;;;5024201;28;20098;-60
2022/09/28 10:37:11;;;;;;;8.32;2.13;;;;;;;;;;5023274;28;20049;-60
2022/09/28 10:39:49;;;;;;;6.32;2.50;;;;;;;;;;5022166;28;20487;-60
2022/09/28 10:42:22;;;;;;;6.53;2.10;;;;;;;;;;5022547;28;20064;-61
2022/09/28 10:45:03;;;;;;;4.55;1.52;;;;;;;;;;5019464;28;20121;-60
2022/09/28 10:47:31;;;;;;;2.90;1.50;;;;;;;;;;5002935;28;20635;-60
2022/09/28 10:49:58;;;;;;;2.97;1.38;;;;;;;;;;5024929;28;20091;-60
2022/09/28 10:52:32;;;;;;;6.85;1.30;;;;;;;;;;5025332;28;20696;-58
2022/09/28 10:54:59;;;;;;;5.88;1.30;;;;;;;;;;5023891;28;20042;-60
2022/09/28 10:57:28;;;;;;;2.03;1.00;;;;;;;;;;5020171;28;20045;-60
2022/09/28 10:59:54;;;;;;;3.85;1.27;;;;;;;;;;5021137;28;20095;-59
2022/09/28 11:02:24;;;;;;;3.15;1.33;;;;;;;;;;5018673;28;20046;-60
2022/09/28 11:04:53;;;;;;;2.75;1.23;;;;;;;;;;5021295;28;20065;-60
2022/09/28 11:07:21;;;;;;;3.40;1.20;;;;;;;;;;5023433;28;20054;-60
2022/09/28 11:09:48;;;;;;;4.45;0.80;;;;;;;;;;5023290;28;20081;-60
2022/09/28 11:12:16;;;;;;;4.40;1.00;;;;;;;;;;5017152;28;20046;-60
2022/09/28 11:14:43;;;;;;;2.13;1.00;;;;;;;;;;5017214;28;20128;-56
2022/09/28 11:17:18;;;;;;;2.03;0.70;;;;;;;;;;5022509;28;20498;-60
2022/09/28 11:19:44;;;;;;;2.60;0.95;;;;;;;;;;5024307;28;20660;-59
2022/09/28 11:22:19;;;;;;;3.13;0.90;;;;;;;;;;5022837;28;20040;-60
2022/09/28 11:24:46;;;;;;;4.25;0.95;;;;;;;;;;5025745;28;20479;-59
2022/09/28 11:27:20;;;;;;;3.95;0.73;;;;;;;;;;5022732;28;20061;-60
2022/09/28 11:29:54;;;;;;;2.22;0.80;;;;;;;;;;5024309;28;20099;-60
2022/09/28 11:32:21;;;;;;;4.57;0.90;;;;;;;;;;5027864;28;20093;-60
2022/09/28 11:34:48;;;;;;;5.30;1.30;;;;;;;;;;5025678;28;20045;-60
2022/09/28 11:37:26;;;;;;;1.92;0.82;;;;;;;;;;5023386;28;20086;-61
2022/09/28 11:40:12;;;;;;;2.58;0.82;;;;;;;;;;5023859;28;20450;-60
2022/09/28 11:42:48;;;;;;;2.42;0.63;;;;;;;;;;5023664;28;20498;-58
2022/09/28 11:45:38;;;;;;;1.80;0.75;;;;;;;;;;5021558;28;20362;-58
2022/09/28 11:48:10;;;;;;;2.72;0.68;;;;;;;;;;5017883;28;20091;-58
2022/09/28 11:50:46;;;;;;;1.58;0.80;;;;;;;;;;5021654;28;20095;-58
2022/09/28 11:53:12;;;;;;;2.85;0.60;;;;;;;;;;5015192;28;20116;-58
2022/09/28 11:55:42;;;;;;;2.78;0.80;;;;;;;;;;5012063;28;20044;-57
2022/09/28 11:58:13;;;;;;;1.52;0.45;;;;;;;;;;4992122;28;20085;-58
2022/09/28 12:00:43;;;;;;;2.00;0.55;;;;;;;;;;5008767;28;20042;-58
2022/09/28 12:03:14;;;;;;;1.83;0.60;;;;;;;;;;5017776;28;20052;-58
2022/09/28 12:05:47;;;;;;;1.33;0.80;;;;;;;;;;5013414;28;20060;-58
2022/09/28 12:08:17;;;;;;;3.08;1.40;;;;;;;;;;5014609;28;20384;-59
2022/09/28 12:10:48;;;;;;;1.17;0.50;;;;;;;;;;5014798;28;20081;-58
2022/09/28 12:13:19;;;;;;;6.20;0.60;;;;;;;;;;5011992;28;20045;-58
2022/09/28 12:15:52;;;;;;;1.60;0.60;;;;;;;;;;5027290;28;20033;-58
2022/09/28 12:18:18;;;;;;;1.95;0.60;;;;;;;;;;5023790;28;20104;-57
2022/09/28 12:20:47;;;;;;;2.10;0.55;;;;;;;;;;5009956;28;20428;-58
2022/09/28 12:23:24;;;;;;;2.08;0.63;;;;;;;;;;5009927;28;20034;-58
2022/09/28 12:25:58;;;;;;;3.13;0.70;;;;;;;;;;5009513;28;20050;-58
2022/09/28 12:28:28;;;;;;;1.48;0.80;;;;;;;;;;5012422;28;20707;-57
2022/09/28 12:30:55;;;;;;;1.73;0.60;;;;;;;;;;4993041;28;20520;-57
2022/09/28 12:33:21;;;;;;;2.55;1.90;;;;;;;;;;5003870;28;20068;-57
2022/09/28 12:35:56;;;;;;;3.50;0.90;;;;;;;;;;5031212;28;20128;-57
2022/09/28 12:38:30;;;;;;;2.08;0.98;;;;;;;;;;5027980;28;20049;-57
2022/09/28 12:41:01;;;;;;;5.40;1.27;;;;;;;;;;5031836;28;20065;-57
2022/09/28 12:43:32;;;;;;;2.45;0.85;;;;;;;;;;5028376;28;20069;-59
2022/09/28 12:46:11;;;;;;;1.70;0.65;;;;;;;;;;5023467;28;20072;-58
2022/09/28 12:48:37;;;;;;;1.80;0.50;;;;;;;;;;5027436;28;20107;-58
2022/09/28 12:51:14;;;;;;;1.30;0.63;;;;;;;;;;5022870;28;20053;-58
2022/09/28 12:53:43;;;;;;;3.45;0.52;;;;;;;;;;5027885;28;20427;-58
2022/09/28 12:56:12;;;;;;;2.22;0.40;;;;;;;;;;5027661;28;20033;-57
2022/09/28 12:58:45;;;;;;;0.52;0.32;;;;;;;;;;5028476;28;20115;-57
2022/09/28 13:01:18;;;;;;;2.40;0.52;;;;;;;;;;5031288;28;20040;-57
2022/09/28 13:03:44;;;;;;;2.22;0.30;;;;;;;;;;5028238;28;20484;-58
2022/09/28 13:06:15;;;;;;;5.05;0.60;;;;;;;;;;5027754;28;20543;-59
2022/09/28 13:09:00;;;;;;;3.65;0.50;;;;;;;;;;5029217;28;20056;-57
2022/09/28 13:11:32;;;;;;;1.33;0.40;;;;;;;;;;5027321;28;20139;-57
2022/09/28 13:14:00;;;;;;;0.82;0.28;;;;;;;;;;5029078;28;20037;-56
2022/09/28 13:16:32;;;;;;;0.95;0.40;;;;;;;;;;5029639;28;20056;-58
2022/09/28 13:18:58;;;;;;;0.40;0.20;;;;;;;;;;5026283;28;20038;-58
2022/09/28 13:21:31;;;;;;;0.50;0.30;;;;;;;;;;5026748;28;20057;-58
2022/09/28 13:23:59;;;;;;;0.55;0.30;;;;;;;;;;5027075;28;20121;-58
2022/09/28 13:26:35;;;;;;;1.23;0.30;;;;;;;;;;5025604;28;20051;-58
2022/09/28 13:29:05;;;;;;;4.63;0.60;;;;;;;;;;5009548;28;20061;-59
2022/09/28 13:31:32;;;;;;;12.70;0.65;;;;;;;;;;5026722;28;20044;-58
2022/09/28 13:34:01;;;;;;;8.57;0.93;;;;;;;;;;5025732;28;20041;-58
2022/09/28 13:36:27;;;;;;;7.90;0.40;;;;;;;;;;5026438;28;20507;-58
2022/09/28 13:38:54;;;;;;;13.55;3.83;;;;;;;;;;5026214;28;20376;-58
2022/09/28 13:41:28;;;;;;;7.22;0.50;;;;;;;;;;5031191;28;20099;-57
2022/09/28 13:44:15;;;;;;;2.15;0.35;;;;;;;;;;5026588;28;20051;-59
2022/09/28 13:46:52;;;;;;;1.52;0.10;;;;;;;;;;5024472;28;20124;-58
2022/09/28 13:49:22;;;;;;;1.00;0.08;;;;;;;;;;5024328;28;20094;-58
2022/09/28 13:51:48;;;;;;;1.80;0.10;;;;;;;;;;5032088;28;20479;-58
2022/09/28 13:54:40;;;;;;;0.95;0.28;;;;;;;;;;5026045;28;20142;-57
2022/09/28 13:57:22;;;;;;;5.20;0.13;;;;;;;;;;5015319;28;20045;-57
2022/09/28 13:59:58;;;;;;;1.80;0.22;;;;;;;;;;5029223;28;20081;-56
2022/09/28 14:02:31;;;;;;;1.42;0.17;;;;;;;;;;5027772;28;20456;-56
2022/09/28 14:04:59;;;;;;;8.57;0.40;;;;;;;;;;5033523;28;20084;-57
2022/09/28 14:07:26;;;;;;;3.72;0.22;;;;;;;;;;5030864;28;20077;-57
2022/09/28 14:10:11;;;;;;;3.78;0.38;;;;;;;;;;5027972;28;20057;-57
2022/09/28 14:12:37;;;;;;;8.50;0.30;;;;;;;;;;5031298;28;20458;-58
2022/09/28 14:15:23;;;;;;;3.63;0.20;;;;;;;;;;5031238;28;20049;-58
2022/09/28 14:17:54;;;;;;;3.15;0.25;;;;;;;;;;5010381;28;20069;-58
2022/09/28 14:20:22;;;;;;;8.48;0.90;;;;;;;;;;5029891;28;20049;-58
2022/09/28 14:22:59;;;;;;;1.33;0.17;;;;;;;;;;5028818;28;20483;-58
2022/09/28 14:25:29;;;;;;;8.48;0.70;;;;;;;;;;5029791;28;20045;-57
2022/09/28 14:28:12;;;;;;;1.02;0.10;;;;;;;;;;5028676;28;20166;-58
2022/09/28 14:30:41;;;;;;;3.97;0.30;;;;;;;;;;5030319;28;20049;-58
2022/09/28 14:33:21;;;;;;;3.22;0.20;;;;;;;;;;5031224;28;20562;-58
2022/09/28 14:35:56;;;;;;;3.63;0.15;;;;;;;;;;5033568;28;20073;-58
2022/09/28 14:41:25;;;;;;;12.20;0.55;;;;;;;;;;5012895;28;20049;-58
2022/09/28 14:43:59;;;;;;;4.85;0.65;;;;;;;;;;5032372;28;20044;-56
2022/09/28 14:46:26;;;;;;;1.42;0.35;;;;;;;;;;5031809;28;20694;-58
2022/09/28 14:48:54;;;;;;;1.27;0.10;;;;;;;;;;5032273;28;20128;-58
2022/09/28 14:51:20;;;;;;;1.70;0.30;;;;;;;;;;5030293;28;20037;-57
2022/09/28 14:53:49;;;;;;;1.20;0.20;;;;;;;;;;5033142;28;20136;-57
2022/09/28 14:56:16;;;;;;;1.30;0.22;;;;;;;;;;5031773;28;20048;-58
2022/09/28 14:58:42;;;;;;;1.35;0.30;;;;;;;;;;5030613;28;20128;-58